Terminal Aerodrome Forecast
Issued by NWS

Home | Current Version | Previous Version | Text Only | Print | Product List | Glossary On
Versions: 1 2 3 4 5 6 7 8 9 10 11 12 13
975
FTAK31 PAJN 242330
TAFAPG
TAF
PAPG 242330Z 2500/2524 VRB03KT P6SM FEW060
     FM250300 VRB03KT P6SM SCT020 BKN060
     FM250700 VRB03KT P6SM VCSH BKN020 OVC040
     FM251200 VRB05KT 3SM -SN OVC015
     FM252000 05012KT P6SM SCT030 SCT050
      AMD LTD TO CLD VIS AND WIND 2506/2515=

USA.gov is the U.S. government's official web portal to all federal, state and local government web resources and services.